createdAt,value
2018-02-13T00:00:03.353Z,11.80
2018-02-13T00:01:05.842Z,20.80
2018-02-13T00:02:08.321Z,16.70
2018-02-13T00:03:10.806Z,16.92
2018-02-13T00:04:13.284Z,16.55
2018-02-13T00:05:15.748Z,16.52
2018-02-13T00:06:18.196Z,13.62
2018-02-13T00:07:22.204Z,25.52
2018-02-13T00:08:25.438Z,19.20
2018-02-13T00:09:28.679Z,14.70
2018-02-13T00:10:31.929Z,17.75
2018-02-13T00:11:35.183Z,20.73
2018-02-13T00:12:37.648Z,14.18
2018-02-13T00:13:40.114Z,19.15
2018-02-13T00:14:43.382Z,14.77
2018-02-13T00:15:45.844Z,17.92
2018-02-13T00:16:48.315Z,16.98
2018-02-13T00:17:51.565Z,18.90
2018-02-13T00:18:54.136Z,17.20
2018-02-13T00:19:56.723Z,15.85
2018-02-13T00:20:59.215Z,14.50
2018-02-13T00:22:01.772Z,21.35
2018-02-13T00:23:04.272Z,15.85
2018-02-13T00:24:06.744Z,16.62
2018-02-13T00:25:09.248Z,18.75
2018-02-13T00:26:11.742Z,15.90
2018-02-13T00:27:15.744Z,18.77
2018-02-13T00:28:18.240Z,15.40
2018-02-13T00:29:21.466Z,20.83
2018-02-13T00:30:25.822Z,18.77
2018-02-13T00:31:28.294Z,15.98
2018-02-13T00:32:30.760Z,22.30
2018-02-13T00:33:33.228Z,19.15
2018-02-13T00:34:36.514Z,15.60
2018-02-13T00:35:39.005Z,17.80
2018-02-13T00:36:42.355Z,18.90
2018-02-13T00:37:44.783Z,18.60
2018-02-13T00:38:47.255Z,17.60
2018-02-13T00:39:49.851Z,26.20
2018-02-13T00:40:52.312Z,14.13
2018-02-13T00:41:54.792Z,21.77
2018-02-13T00:42:57.447Z,14.30
2018-02-13T00:43:59.901Z,14.80
2018-02-13T00:45:03.183Z,17.85
2018-02-13T00:46:05.705Z,23.17
2018-02-13T00:47:08.233Z,16.90
2018-02-13T00:48:10.714Z,15.18
2018-02-13T00:49:13.180Z,17.92
2018-02-13T00:50:15.680Z,18.95
2018-02-13T00:51:18.898Z,19.15
2018-02-13T00:52:21.361Z,20.05
2018-02-13T00:53:23.827Z,18.37
2018-02-13T00:54:26.458Z,13.85
2018-02-13T00:55:28.946Z,14.73
2018-02-13T00:56:31.416Z,15.50
2018-02-13T00:57:33.871Z,15.75
2018-02-13T00:58:37.113Z,16.77
2018-02-13T00:59:40.347Z,17.37
2018-02-13T01:00:42.824Z,14.93
2018-02-13T01:01:45.326Z,14.20
2018-02-13T01:02:47.850Z,15.48
2018-02-13T01:03:51.075Z,14.00
2018-02-13T01:04:54.312Z,22.95
2018-02-13T01:05:57.556Z,13.25
2018-02-13T01:07:00.041Z,20.48
2018-02-13T01:08:02.505Z,15.40
2018-02-13T01:09:05.745Z,15.07
2018-02-13T01:10:08.301Z,18.02
2018-02-13T01:11:10.796Z,16.58
2018-02-13T01:12:14.790Z,14.93
2018-02-13T01:13:17.267Z,17.17
2018-02-13T01:14:20.669Z,13.20
2018-02-13T01:15:23.223Z,14.55
2018-02-13T01:16:25.684Z,18.08
2018-02-13T01:17:29.041Z,17.70
2018-02-13T01:18:32.275Z,17.80
2018-02-13T01:19:35.529Z,18.52
2018-02-13T01:20:38.010Z,15.02
2018-02-13T01:22:37.581Z,12.50
2018-02-13T01:23:40.850Z,14.55
2018-02-13T01:24:43.319Z,24.52
2018-02-13T01:25:47.115Z,15.57
2018-02-13T01:26:49.595Z,19.40
2018-02-13T01:27:52.055Z,16.17
2018-02-13T01:28:54.576Z,16.73
2018-02-13T01:29:57.838Z,12.98
2018-02-13T01:31:00.315Z,15.07
2018-02-13T01:32:02.771Z,11.90
2018-02-13T01:33:06.003Z,19.37
2018-02-13T01:34:08.517Z,25.02
2018-02-13T01:35:10.978Z,17.45
2018-02-13T01:36:13.494Z,12.80
2018-02-13T01:37:16.026Z,20.42
2018-02-13T01:38:18.521Z,18.20
2018-02-13T01:39:21.786Z,18.25
2018-02-13T01:40:24.314Z,18.60
2018-02-13T01:41:27.560Z,14.60
2018-02-13T01:42:30.034Z,15.20
2018-02-13T01:43:32.536Z,13.90
2018-02-13T01:44:35.012Z,15.45
2018-02-13T01:45:38.274Z,16.40
2018-02-13T01:46:40.964Z,17.70
2018-02-13T01:47:44.535Z,13.50
2018-02-13T01:48:47.765Z,16.85
2018-02-13T01:49:50.235Z,15.45
2018-02-13T01:50:53.362Z,19.83
2018-02-13T01:51:55.829Z,17.90
2018-02-13T01:52:58.322Z,11.93
2018-02-13T01:54:00.806Z,17.70
2018-02-13T01:55:03.270Z,17.02
2018-02-13T01:56:05.757Z,15.13
2018-02-13T01:57:08.988Z,16.10
2018-02-13T01:58:11.556Z,16.25
2018-02-13T01:59:14.061Z,13.98
2018-02-13T02:00:17.325Z,20.55
2018-02-13T02:01:19.825Z,15.77
2018-02-13T02:02:22.283Z,13.02
2018-02-13T02:03:24.753Z,22.87
2018-02-13T02:04:27.225Z,22.02
2018-02-13T02:05:29.721Z,18.00
2018-02-13T02:06:32.227Z,15.75
2018-02-13T02:07:34.798Z,16.65
2018-02-13T02:08:37.261Z,19.15
2018-02-13T02:09:39.748Z,16.20
2018-02-13T02:10:42.211Z,23.65
2018-02-13T02:11:44.714Z,19.20
2018-02-13T02:12:47.220Z,16.45
2018-02-13T02:13:49.757Z,17.15
2018-02-13T02:14:52.248Z,19.70
2018-02-13T02:15:55.513Z,15.30
2018-02-13T02:16:58.000Z,19.60
2018-02-13T02:18:01.330Z,14.95
2018-02-13T02:19:03.799Z,20.20
2018-02-13T02:20:07.062Z,16.50
2018-02-13T02:21:10.320Z,17.77
2018-02-13T02:22:12.807Z,17.83
2018-02-13T02:23:16.069Z,18.35
2018-02-13T02:24:18.554Z,16.27
2018-02-13T02:25:21.018Z,18.60
2018-02-13T02:26:23.518Z,17.23
2018-02-13T02:27:26.066Z,19.52
2018-02-13T02:28:28.531Z,14.75
2018-02-13T02:29:31.012Z,18.62
2018-02-13T02:30:33.508Z,18.62
2018-02-13T02:31:37.486Z,16.83
2018-02-13T02:32:40.722Z,20.50
2018-02-13T02:33:43.990Z,13.85
2018-02-13T02:34:46.473Z,19.73
2018-02-13T02:35:48.963Z,16.55
2018-02-13T02:36:51.448Z,19.65
2018-02-13T02:37:54.672Z,17.27
2018-02-13T02:38:57.523Z,17.02
2018-02-13T02:40:00.764Z,20.10
2018-02-13T02:41:04.023Z,21.33
2018-02-13T02:42:06.549Z,16.90
2018-02-13T02:43:09.059Z,14.25
2018-02-13T02:44:12.317Z,14.40
2018-02-13T02:45:14.783Z,16.75
2018-02-13T02:46:17.279Z,21.55
2018-02-13T02:47:19.743Z,17.75
2018-02-13T02:48:22.207Z,19.10
2018-02-13T02:49:25.450Z,17.33
2018-02-13T02:50:28.748Z,16.73
2018-02-13T02:51:31.195Z,15.50
2018-02-13T02:52:33.662Z,19.87
2018-02-13T02:53:36.133Z,17.30
2018-02-13T02:54:39.424Z,21.33
2018-02-13T02:55:41.927Z,17.23
2018-02-13T02:56:45.179Z,19.08
2018-02-13T02:57:47.720Z,17.83
2018-02-13T02:58:50.179Z,18.10
2018-02-13T02:59:52.662Z,19.90
2018-02-13T03:00:55.159Z,17.35
2018-02-13T03:01:57.626Z,16.08
2018-02-13T03:03:00.086Z,18.95
2018-02-13T03:04:02.579Z,18.87
2018-02-13T03:05:05.049Z,16.15
2018-02-13T03:06:07.606Z,17.67
2018-02-13T03:07:10.069Z,17.58
2018-02-13T03:08:12.702Z,20.52
2018-02-13T03:09:15.130Z,21.10
2018-02-13T03:10:17.592Z,17.40
2018-02-13T03:11:20.834Z,19.10
2018-02-13T03:12:24.075Z,19.00
2018-02-13T03:13:27.334Z,20.92
2018-02-13T03:14:29.872Z,23.15
2018-02-13T03:15:32.351Z,19.80
2018-02-13T03:16:35.579Z,19.58
2018-02-13T03:17:38.047Z,24.42
2018-02-13T03:18:41.415Z,18.17
2018-02-13T03:19:43.894Z,19.87
2018-02-13T03:20:46.370Z,16.67
2018-02-13T03:21:49.613Z,19.85
2018-02-13T03:22:52.085Z,23.33
2018-02-13T03:23:54.577Z,20.37
2018-02-13T03:24:57.035Z,20.12
2018-02-13T03:25:59.631Z,23.23
2018-02-13T03:27:02.123Z,24.90
2018-02-13T03:28:04.628Z,18.42
2018-02-13T03:29:07.895Z,19.15
2018-02-13T03:30:10.371Z,23.75
2018-02-13T03:31:12.844Z,23.98
2018-02-13T03:32:15.317Z,20.12
2018-02-13T03:33:19.297Z,20.25
2018-02-13T03:34:21.792Z,20.52
2018-02-13T03:35:24.295Z,22.35
2018-02-13T03:36:26.766Z,24.00
2018-02-13T03:37:29.239Z,26.02
2018-02-13T03:38:31.711Z,22.87
2018-02-13T03:39:34.204Z,20.15
2018-02-13T03:40:36.674Z,23.00
2018-02-13T03:41:39.913Z,22.87
2018-02-13T03:42:42.381Z,21.30
2018-02-13T03:43:44.876Z,23.10
2018-02-13T03:44:48.127Z,22.23
2018-02-13T03:45:50.651Z,26.45
2018-02-13T03:46:53.147Z,24.83
2018-02-13T03:47:55.625Z,20.62
2018-02-13T03:48:58.102Z,26.80
2018-02-13T03:50:00.581Z,24.10
2018-02-13T03:51:03.054Z,23.87
2018-02-13T03:52:06.324Z,22.35
2018-02-13T03:53:08.793Z,26.87
2018-02-13T03:54:11.267Z,26.80
2018-02-13T03:55:14.640Z,23.67
2018-02-13T03:56:17.104Z,24.30
2018-02-13T03:57:20.329Z,25.17
2018-02-13T03:58:22.818Z,25.98
2018-02-13T03:59:25.339Z,22.67
2018-02-13T04:00:27.828Z,24.02
2018-02-13T04:01:30.403Z,25.65
2018-02-13T04:02:32.936Z,25.52
2018-02-13T04:03:35.408Z,28.02
2018-02-13T04:04:37.970Z,29.05
2018-02-13T04:05:40.533Z,33.60
2018-02-13T04:06:43.041Z,30.50
2018-02-13T04:07:45.570Z,25.00
2018-02-13T04:08:48.042Z,25.77
2018-02-13T04:09:50.604Z,27.23
2018-02-13T04:10:53.488Z,27.42
2018-02-13T04:11:56.373Z,25.42
2018-02-13T04:12:58.827Z,26.90
2018-02-13T04:14:01.288Z,24.75
2018-02-13T04:15:04.590Z,25.45
2018-02-13T04:16:07.046Z,29.87
2018-02-13T04:17:09.598Z,26.17
2018-02-13T04:18:12.844Z,28.73
2018-02-13T04:19:16.080Z,28.12
2018-02-13T04:20:19.350Z,28.20
2018-02-13T04:21:22.580Z,32.80
2018-02-13T04:22:25.047Z,28.73
2018-02-13T04:23:27.616Z,35.95
2018-02-13T04:24:30.870Z,31.37
2018-02-13T04:25:33.350Z,26.98
2018-02-13T04:26:35.853Z,30.88
2018-02-13T04:27:38.328Z,31.55
2018-02-13T04:28:41.562Z,31.15
2018-02-13T04:29:44.808Z,27.25
2018-02-13T04:30:48.062Z,30.52
2018-02-13T04:31:51.302Z,29.83
2018-02-13T04:32:54.554Z,36.15
2018-02-13T04:33:57.026Z,30.25
2018-02-13T04:34:59.514Z,32.25
2018-02-13T04:36:01.996Z,32.42
2018-02-13T04:37:05.970Z,34.10
2018-02-13T04:38:09.219Z,38.03
2018-02-13T04:39:11.680Z,34.65
2018-02-13T04:40:14.181Z,32.03
2018-02-13T04:41:16.656Z,35.60
2018-02-13T04:42:19.130Z,38.65
2018-02-13T04:43:21.602Z,31.05
2018-02-13T04:44:24.090Z,41.13
2018-02-13T04:45:26.714Z,34.92
2018-02-13T04:46:29.190Z,31.40
2018-02-13T04:47:31.658Z,34.53
2018-02-13T04:48:34.884Z,36.10
2018-02-13T04:49:38.555Z,40.72
2018-02-13T04:50:41.081Z,39.00
2018-02-13T04:51:43.532Z,35.67
2018-02-13T04:52:46.019Z,36.38
2018-02-13T04:53:49.267Z,35.83
2018-02-13T04:54:51.797Z,35.47
2018-02-13T04:55:54.290Z,37.58
2018-02-13T04:56:56.760Z,36.15
2018-02-13T04:57:59.254Z,35.80
2018-02-13T04:59:02.508Z,38.95
2018-02-13T05:00:05.069Z,38.05
2018-02-13T05:01:07.579Z,41.63
2018-02-13T05:02:10.054Z,40.65
2018-02-13T05:03:13.308Z,38.78
2018-02-13T05:04:15.911Z,38.35
2018-02-13T05:05:18.410Z,37.45
2018-02-13T05:06:20.904Z,41.65
2018-02-13T05:07:23.386Z,42.95
2018-02-13T05:08:25.894Z,42.20
2018-02-13T05:09:28.389Z,39.17
2018-02-13T05:10:30.951Z,44.67
2018-02-13T05:11:33.441Z,34.80
2018-02-13T05:12:36.063Z,34.40
2018-02-13T05:13:38.581Z,33.72
2018-02-13T05:14:41.812Z,40.60
2018-02-13T05:15:45.053Z,39.60
2018-02-13T05:16:48.285Z,37.80
2018-02-13T05:17:51.513Z,34.97
2018-02-13T05:18:55.542Z,39.42
2018-02-13T05:19:58.058Z,37.83
2018-02-13T05:21:00.543Z,38.38
2018-02-13T05:22:03.007Z,41.10
2018-02-13T05:23:05.530Z,44.40
2018-02-13T05:24:08.049Z,42.17
2018-02-13T05:25:10.497Z,45.38
2018-02-13T05:26:12.998Z,45.63
2018-02-13T05:27:15.469Z,48.80
2018-02-13T05:28:17.963Z,44.92
2018-02-13T05:29:20.476Z,51.70
2018-02-13T05:30:22.959Z,43.72
2018-02-13T05:31:26.224Z,39.90
2018-02-13T05:32:29.471Z,42.80
2018-02-13T05:33:32.723Z,43.92
2018-02-13T05:34:35.246Z,37.47
2018-02-13T05:35:37.706Z,39.90
2018-02-13T05:36:40.978Z,41.33
2018-02-13T05:37:43.533Z,43.03
2018-02-13T05:38:46.782Z,43.22
2018-02-13T05:39:49.306Z,48.45
2018-02-13T05:40:52.545Z,47.97
2018-02-13T05:41:55.797Z,44.35
2018-02-13T05:42:58.278Z,47.83
2018-02-13T05:44:01.514Z,47.53
2018-02-13T05:45:04.028Z,44.92
2018-02-13T05:46:06.506Z,47.90
2018-02-13T05:47:09.734Z,41.67
2018-02-13T05:48:12.357Z,46.95
2018-02-13T05:49:15.578Z,53.80
2018-02-13T05:50:18.122Z,42.38
2018-02-13T05:51:20.598Z,47.05
2018-02-13T05:52:23.128Z,51.75
2018-02-13T05:53:25.633Z,47.33
2018-02-13T05:54:28.171Z,48.13
2018-02-13T05:55:30.672Z,47.67
2018-02-13T05:56:33.969Z,42.45
2018-02-13T05:57:36.455Z,44.80
2018-02-13T05:58:39.264Z,43.58
2018-02-13T05:59:42.513Z,49.00
2018-02-13T06:00:45.757Z,47.72
2018-02-13T06:01:49.159Z,44.03
2018-02-13T06:02:51.615Z,47.97
2018-02-13T06:03:54.853Z,50.38
2018-02-13T06:04:58.318Z,46.53
2018-02-13T06:06:00.864Z,46.08
2018-02-13T06:07:03.363Z,50.63
2018-02-13T06:08:06.606Z,48.10
2018-02-13T06:09:09.866Z,47.80
2018-02-13T06:10:12.364Z,45.47
2018-02-13T06:11:15.632Z,51.88
2018-02-13T06:12:18.121Z,45.97
2018-02-13T06:13:20.590Z,51.55
2018-02-13T06:14:23.100Z,45.28
2018-02-13T06:15:25.588Z,47.67
2018-02-13T06:16:28.074Z,47.92
2018-02-13T06:17:30.621Z,51.58
2018-02-13T06:18:33.106Z,51.88
2018-02-13T06:19:35.596Z,48.28
2018-02-13T06:20:38.087Z,51.80
2018-02-13T06:21:40.630Z,52.08
2018-02-13T06:22:43.105Z,54.85
2018-02-13T06:23:46.350Z,55.50
2018-02-13T06:24:49.605Z,48.30
2018-02-13T06:25:52.108Z,50.63
2018-02-13T06:26:55.361Z,57.53
2018-02-13T06:28:01.128Z,47.92
2018-02-13T06:29:04.654Z,56.45
2018-02-13T06:30:07.127Z,52.30
2018-02-13T06:31:10.464Z,54.20
2018-02-13T06:32:13.717Z,47.60
2018-02-13T06:33:16.938Z,51.78
2018-02-13T06:34:20.192Z,52.60
2018-02-13T06:35:23.991Z,56.37
2018-02-13T06:36:26.492Z,51.97
2018-02-13T06:37:29.023Z,48.28
2018-02-13T06:38:31.543Z,51.75
2018-02-13T06:39:33.992Z,54.17
2018-02-13T06:40:36.465Z,56.65
2018-02-13T06:41:39.743Z,42.30
2018-02-13T06:42:42.266Z,48.87
2018-02-13T06:43:44.777Z,52.60
2018-02-13T06:44:48.013Z,51.22
2018-02-13T06:45:51.260Z,52.88
2018-02-13T06:46:54.537Z,57.22
2018-02-13T06:47:57.009Z,52.92
2018-02-13T06:49:00.305Z,48.30
2018-02-13T06:50:02.778Z,48.60
2018-02-13T06:51:05.258Z,56.30
2018-02-13T06:52:07.722Z,51.17
2018-02-13T06:53:10.258Z,53.28
2018-02-13T06:54:13.530Z,52.45
2018-02-13T06:55:16.006Z,54.17
2018-02-13T06:56:20.032Z,46.83
2018-02-13T06:57:23.251Z,43.87
2018-02-13T06:58:25.822Z,54.58
2018-02-13T06:59:28.323Z,42.47
2018-02-13T07:00:30.813Z,54.08
2018-02-13T07:01:34.104Z,46.65
2018-02-13T07:02:37.364Z,54.30
2018-02-13T07:03:39.862Z,51.53
2018-02-13T07:04:42.375Z,44.53
2018-02-13T07:05:44.946Z,55.03
2018-02-13T07:06:48.240Z,56.63
2018-02-13T07:07:50.740Z,43.90
2018-02-13T07:08:53.978Z,52.72
2018-02-13T07:09:57.268Z,48.08
2018-02-13T07:10:59.805Z,46.33
2018-02-13T07:12:02.293Z,53.33
2018-02-13T07:13:04.786Z,47.95
2018-02-13T07:14:07.379Z,51.00
2018-02-13T07:15:09.879Z,51.58
2018-02-13T07:16:12.407Z,53.00
2018-02-13T07:17:14.924Z,45.60
2018-02-13T07:18:17.384Z,45.70
2018-02-13T07:19:19.913Z,50.10
2018-02-13T07:20:22.588Z,46.90
2018-02-13T07:21:25.854Z,43.38
2018-02-13T07:22:28.327Z,44.78
2018-02-13T07:23:30.896Z,48.00
2018-02-13T07:24:33.425Z,46.35
2018-02-13T07:25:35.902Z,47.17
2018-02-13T07:26:38.435Z,48.15
2018-02-13T07:27:41.634Z,43.05
2018-02-13T07:28:44.119Z,46.42
2018-02-13T07:29:47.386Z,47.15
2018-02-13T07:30:49.847Z,48.35
2018-02-13T07:31:52.446Z,43.72
2018-02-13T07:32:54.909Z,42.90
2018-02-13T07:33:57.398Z,45.33
2018-02-13T07:34:59.872Z,40.90
2018-02-13T07:36:02.458Z,44.65
2018-02-13T07:37:04.967Z,45.70
2018-02-13T07:38:07.450Z,43.75
2018-02-13T07:39:10.698Z,45.42
2018-02-13T07:40:13.993Z,42.67
2018-02-13T07:41:16.475Z,52.53
2018-02-13T07:42:19.750Z,41.83
2018-02-13T07:43:22.218Z,42.53
2018-02-13T07:44:24.706Z,43.87
2018-02-13T07:45:27.230Z,40.92
2018-02-13T07:46:30.130Z,47.67
2018-02-13T07:47:33.545Z,45.25
2018-02-13T07:48:36.171Z,42.92
2018-02-13T07:49:38.610Z,40.17
2018-02-13T07:50:41.128Z,45.42
2018-02-13T07:51:44.392Z,41.00
2018-02-13T07:52:46.845Z,44.40
2018-02-13T07:53:49.318Z,45.33
2018-02-13T07:54:51.789Z,38.95
2018-02-13T07:55:54.296Z,48.33
2018-02-13T07:56:57.521Z,40.88
2018-02-13T07:57:59.978Z,37.22
2018-02-13T07:59:03.281Z,43.35
2018-02-13T08:00:06.825Z,44.38
2018-02-13T08:01:09.332Z,42.40
2018-02-13T08:02:11.816Z,42.95
2018-02-13T08:03:15.063Z,41.42
2018-02-13T08:04:18.310Z,41.55
2018-02-13T08:05:20.793Z,41.97
2018-02-13T08:06:24.821Z,36.55
2018-02-13T08:07:27.609Z,44.50
2018-02-13T08:08:30.879Z,39.17
2018-02-13T08:09:33.396Z,37.42
2018-02-13T08:10:35.857Z,41.67
2018-02-13T08:11:38.476Z,41.33
2018-02-13T08:12:41.006Z,38.60
2018-02-13T08:13:43.491Z,36.95
2018-02-13T08:14:46.718Z,40.85
2018-02-13T08:15:49.959Z,34.88
2018-02-13T08:16:52.442Z,39.10
2018-02-13T08:17:54.981Z,41.47
2018-02-13T08:18:57.462Z,40.30
2018-02-13T08:19:59.995Z,36.38
2018-02-13T08:21:02.476Z,33.45
2018-02-13T08:22:05.903Z,34.78
2018-02-13T08:23:08.375Z,43.05
2018-02-13T08:24:11.677Z,39.40
2018-02-13T08:25:14.136Z,37.13
2018-02-13T08:26:17.395Z,36.42
2018-02-13T08:27:20.486Z,38.17
2018-02-13T08:28:22.962Z,40.33
2018-02-13T08:29:25.436Z,38.45
2018-02-13T08:30:29.422Z,37.72
2018-02-13T08:31:32.792Z,40.83
2018-02-13T08:32:35.318Z,39.28
2018-02-13T08:33:37.790Z,38.72
2018-02-13T08:34:41.029Z,36.13
2018-02-13T08:35:43.971Z,35.65
2018-02-13T08:36:46.464Z,34.83
2018-02-13T08:37:48.935Z,33.67
2018-02-13T08:38:51.484Z,35.28
2018-02-13T08:39:53.950Z,32.42
2018-02-13T08:40:56.407Z,40.10
2018-02-13T08:41:59.666Z,39.65
2018-02-13T08:43:02.955Z,38.95
2018-02-13T08:44:05.438Z,39.40
2018-02-13T08:45:08.682Z,37.22
2018-02-13T08:46:11.916Z,38.13
2018-02-13T08:47:15.209Z,36.97
2018-02-13T08:48:17.669Z,31.55
2018-02-13T08:49:21.668Z,32.90
2018-02-13T08:50:24.139Z,38.10
2018-02-13T08:51:26.613Z,34.58
2018-02-13T08:52:29.128Z,39.10
2018-02-13T08:53:32.411Z,33.08
2018-02-13T08:54:34.901Z,38.22
2018-02-13T08:55:38.286Z,32.15
2018-02-13T08:56:40.745Z,35.55
2018-02-13T08:57:43.292Z,30.77
2018-02-13T08:58:46.553Z,31.15
2018-02-13T08:59:49.053Z,33.95
2018-02-13T09:00:52.297Z,35.78
2018-02-13T09:01:55.526Z,33.03
2018-02-13T09:02:58.181Z,35.92
2018-02-13T09:04:00.715Z,32.08
2018-02-13T09:05:03.157Z,35.90
2018-02-13T09:06:05.645Z,40.47
2018-02-13T09:07:08.909Z,37.03
2018-02-13T09:08:11.434Z,32.28
2018-02-13T09:09:13.965Z,31.87
2018-02-13T09:10:16.441Z,32.53
2018-02-13T09:11:18.896Z,32.05
2018-02-13T09:12:22.120Z,35.58
2018-02-13T09:13:25.369Z,33.65
2018-02-13T09:14:28.605Z,33.05
2018-02-13T09:15:31.079Z,32.90
2018-02-13T09:16:33.677Z,35.40
2018-02-13T09:17:36.901Z,33.88
2018-02-13T09:18:40.156Z,35.08
2018-02-13T09:19:43.395Z,39.92
2018-02-13T09:20:47.450Z,35.53
2018-02-13T09:21:50.729Z,32.20
2018-02-13T09:22:53.204Z,33.60
2018-02-13T09:23:55.730Z,33.75
2018-02-13T09:24:59.097Z,36.75
2018-02-13T09:26:02.333Z,34.67
2018-02-13T09:27:05.591Z,35.78
2018-02-13T09:28:08.073Z,34.75
2018-02-13T09:29:11.315Z,31.05
2018-02-13T09:30:13.816Z,38.30
2018-02-13T09:31:16.284Z,35.53
2018-02-13T09:32:19.538Z,31.35
2018-02-13T09:33:22.053Z,38.05
2018-02-13T09:34:24.514Z,33.83
2018-02-13T09:35:27.030Z,36.35
2018-02-13T09:36:29.565Z,36.55
2018-02-13T09:37:32.054Z,31.62
2018-02-13T09:38:34.537Z,31.12
2018-02-13T09:39:37.004Z,48.13
2018-02-13T09:40:40.264Z,40.38
2018-02-13T09:41:43.515Z,39.75
2018-02-13T09:42:46.009Z,33.45
2018-02-13T09:43:48.578Z,38.42
2018-02-13T09:44:51.078Z,37.00
2018-02-13T09:45:54.496Z,37.13
2018-02-13T09:46:56.968Z,32.38
2018-02-13T09:47:59.442Z,39.05
2018-02-13T09:49:01.907Z,35.53
2018-02-13T09:50:05.163Z,35.75
2018-02-13T09:51:07.657Z,34.10
2018-02-13T09:52:10.918Z,34.67
2018-02-13T09:53:14.221Z,39.80
2018-02-13T09:54:16.666Z,37.15
2018-02-13T09:55:19.903Z,36.58
2018-02-13T09:56:22.442Z,46.55
2018-02-13T09:57:25.709Z,32.92
2018-02-13T09:58:28.180Z,32.70
2018-02-13T09:59:30.692Z,35.97
2018-02-13T10:00:33.159Z,36.10
2018-02-13T10:01:36.425Z,40.42
2018-02-13T10:02:39.001Z,33.13
2018-02-13T10:03:43.104Z,36.80
2018-02-13T10:04:45.698Z,34.40
2018-02-13T10:05:48.849Z,35.95
2018-02-13T10:06:52.108Z,34.70
2018-02-13T10:07:55.337Z,32.40
2018-02-13T10:08:58.598Z,37.90
2018-02-13T10:10:01.073Z,37.75
2018-02-13T10:11:03.533Z,33.35
2018-02-13T10:12:06.761Z,33.72
2018-02-13T10:13:09.330Z,39.15
2018-02-13T10:14:11.800Z,32.33
2018-02-13T10:15:14.354Z,32.03
2018-02-13T10:16:17.594Z,34.47
2018-02-13T10:17:20.818Z,39.50
2018-02-13T10:18:23.284Z,37.05
2018-02-13T10:19:25.783Z,34.33
2018-02-13T10:20:29.356Z,35.58
2018-02-13T10:21:31.840Z,34.22
2018-02-13T10:22:34.305Z,36.30
2018-02-13T10:23:37.542Z,34.10
2018-02-13T10:24:40.791Z,34.47
2018-02-13T10:25:43.271Z,36.25
2018-02-13T10:26:45.728Z,40.08
2018-02-13T10:27:48.954Z,34.08
2018-02-13T10:28:51.438Z,37.33
2018-02-13T10:29:54.008Z,36.47
2018-02-13T10:30:57.236Z,35.95
2018-02-13T10:31:59.704Z,36.90
2018-02-13T10:33:02.169Z,40.10
2018-02-13T10:34:04.655Z,31.67
2018-02-13T10:35:07.181Z,37.50
2018-02-13T10:36:09.646Z,38.90
2018-02-13T10:37:12.142Z,33.80
2018-02-13T10:38:14.592Z,37.78
2018-02-13T10:39:17.050Z,37.42
2018-02-13T10:40:20.425Z,35.25
2018-02-13T10:41:23.812Z,38.83
2018-02-13T10:42:26.266Z,37.85
2018-02-13T10:43:29.520Z,35.75
2018-02-13T10:44:32.751Z,36.90
2018-02-13T10:45:35.993Z,35.22
2018-02-13T10:46:39.215Z,37.97
2018-02-13T10:47:41.676Z,31.60
2018-02-13T10:48:44.929Z,38.35
2018-02-13T10:49:48.100Z,30.25
2018-02-13T10:50:50.596Z,33.88
2018-02-13T10:51:53.078Z,35.15
2018-02-13T10:52:55.634Z,34.50
2018-02-13T10:53:58.886Z,36.08
2018-02-13T10:55:01.698Z,32.95
2018-02-13T10:56:04.457Z,33.50
2018-02-13T10:57:07.002Z,33.30
2018-02-13T10:58:09.493Z,33.80
2018-02-13T10:59:12.025Z,37.00
2018-02-13T11:00:14.549Z,39.63
2018-02-13T11:01:22.778Z,32.40
2018-02-13T11:02:26.003Z,40.83
2018-02-13T11:03:28.470Z,39.30
2018-02-13T11:04:30.989Z,35.72
2018-02-13T11:05:34.222Z,34.33
2018-02-13T11:06:37.456Z,38.50
2018-02-13T11:07:39.946Z,36.65
2018-02-13T11:08:42.433Z,40.00
2018-02-13T11:09:44.957Z,34.55
2018-02-13T11:10:47.506Z,31.42
2018-02-13T11:11:50.002Z,33.15
2018-02-13T11:12:53.290Z,33.53
2018-02-13T11:13:56.571Z,34.60
2018-02-13T11:14:59.823Z,34.00
2018-02-13T11:16:03.093Z,33.72
2018-02-13T11:17:05.578Z,36.72
2018-02-13T11:18:08.878Z,39.15
2018-02-13T11:19:11.554Z,34.17
2018-02-13T11:20:14.834Z,34.80
2018-02-13T11:21:17.326Z,32.63
2018-02-13T11:22:19.816Z,32.90
2018-02-13T11:23:22.291Z,32.92
2018-02-13T11:24:25.521Z,33.00
2018-02-13T11:25:28.781Z,27.77
2018-02-13T11:26:32.052Z,31.08
2018-02-13T11:27:34.587Z,28.42
2018-02-13T11:28:37.030Z,34.45
2018-02-13T11:29:39.482Z,34.45
2018-02-13T11:30:42.721Z,31.35
2018-02-13T11:31:45.991Z,34.00
2018-02-13T11:32:48.467Z,28.12
2018-02-13T11:33:50.913Z,34.40
2018-02-13T11:34:54.158Z,31.45
2018-02-13T11:35:57.392Z,29.20
2018-02-13T11:36:59.911Z,31.17
2018-02-13T11:38:02.466Z,31.50
2018-02-13T11:39:04.925Z,32.65
2018-02-13T11:40:07.377Z,38.00
2018-02-13T11:41:09.845Z,35.70
2018-02-13T11:42:12.376Z,33.35
2018-02-13T11:43:14.847Z,34.58
2018-02-13T11:44:17.363Z,28.00
2018-02-13T11:45:19.834Z,32.97
2018-02-13T11:46:23.217Z,34.22
2018-02-13T11:47:25.726Z,33.10
2018-02-13T11:48:28.202Z,29.95
2018-02-13T11:49:30.683Z,40.83
2018-02-13T11:50:33.723Z,32.40
2018-02-13T11:51:36.251Z,32.67
2018-02-13T11:52:38.762Z,31.80
2018-02-13T11:53:41.335Z,31.77
2018-02-13T11:54:45.007Z,28.92
2018-02-13T11:55:48.252Z,30.62
2018-02-13T11:56:50.735Z,27.50
2018-02-13T11:57:53.227Z,27.50
2018-02-13T11:58:55.749Z,27.60
2018-02-13T11:59:58.209Z,28.55
2018-02-13T12:01:00.677Z,33.05
2018-02-13T12:02:03.934Z,28.98
2018-02-13T12:03:07.174Z,29.55
2018-02-13T12:04:10.442Z,24.63
2018-02-13T12:05:12.919Z,25.08
2018-02-13T12:06:15.386Z,22.73
2018-02-13T12:07:17.843Z,26.08
2018-02-13T12:08:20.441Z,23.92
2018-02-13T12:09:22.918Z,26.48
2018-02-13T12:10:25.428Z,33.85
2018-02-13T12:11:28.997Z,28.17
2018-02-13T12:12:31.477Z,25.15
2018-02-13T12:13:33.942Z,31.55
2018-02-13T12:14:36.406Z,26.83
2018-02-13T12:15:39.774Z,23.92
2018-02-13T12:16:42.234Z,22.42
2018-02-13T12:17:44.820Z,23.25
2018-02-13T12:18:47.318Z,25.10
2018-02-13T12:19:50.562Z,22.35
2018-02-13T12:20:53.815Z,23.80
2018-02-13T12:21:56.371Z,21.90
2018-02-13T12:22:58.888Z,24.15
2018-02-13T12:24:01.403Z,21.90
2018-02-13T12:25:03.871Z,23.98
2018-02-13T12:26:06.351Z,23.02
2018-02-13T12:27:08.856Z,25.17
2018-02-13T12:28:12.265Z,21.48
2018-02-13T12:29:14.744Z,22.05
2018-02-13T12:30:17.190Z,24.52
2018-02-13T12:31:19.748Z,20.33
2018-02-13T12:32:22.312Z,27.42
2018-02-13T12:33:25.538Z,24.70
2018-02-13T12:34:28.802Z,23.65
2018-02-13T12:35:31.314Z,23.12
2018-02-13T12:36:34.555Z,22.95
2018-02-13T12:37:37.921Z,19.62
2018-02-13T12:38:40.408Z,21.75
2018-02-13T12:39:42.965Z,19.98
2018-02-13T12:40:46.191Z,21.85
2018-02-13T12:41:49.446Z,19.52
2018-02-13T12:42:51.902Z,19.17
2018-02-13T12:43:54.405Z,24.05
2018-02-13T12:44:56.922Z,20.75
2018-02-13T12:45:59.413Z,25.67
2018-02-13T12:47:01.870Z,24.27
2018-02-13T12:48:04.337Z,22.35
2018-02-13T12:49:06.825Z,18.67
2018-02-13T12:50:09.330Z,21.30
2018-02-13T12:51:12.572Z,23.67
2018-02-13T12:52:15.830Z,21.83
2018-02-13T12:53:18.360Z,26.42
2018-02-13T12:54:20.860Z,20.73
2018-02-13T12:55:23.309Z,21.80
2018-02-13T12:56:25.758Z,20.00
2018-02-13T12:57:28.228Z,21.92
2018-02-13T12:58:30.713Z,19.35
2018-02-13T12:59:33.271Z,21.25
2018-02-13T13:00:35.744Z,22.35
2018-02-13T13:01:38.315Z,21.25
2018-02-13T13:02:40.778Z,28.42
2018-02-13T13:03:44.062Z,24.75
2018-02-13T13:04:46.587Z,22.33
2018-02-13T13:05:49.046Z,19.75
2018-02-13T13:06:51.521Z,27.37
2018-02-13T13:07:53.990Z,30.17
2018-02-13T13:08:56.480Z,22.05
2018-02-13T13:09:58.961Z,24.60
2018-02-13T13:11:02.260Z,20.75
2018-02-13T13:12:04.734Z,26.40
2018-02-13T13:13:07.970Z,23.42
2018-02-13T13:14:11.259Z,23.95
2018-02-13T13:15:13.753Z,22.95
2018-02-13T13:16:16.281Z,24.40
2018-02-13T13:17:18.735Z,24.20
2018-02-13T13:18:21.194Z,22.17
2018-02-13T13:19:23.673Z,22.62
2018-02-13T13:20:26.174Z,24.77
2018-02-13T13:21:29.473Z,20.48
2018-02-13T13:22:32.730Z,19.77
2018-02-13T13:23:35.293Z,20.77
2018-02-13T13:24:39.180Z,20.80
2018-02-13T13:25:41.678Z,20.35
2018-02-13T13:26:44.221Z,24.15
2018-02-13T13:27:46.688Z,22.02
2018-02-13T13:28:50.053Z,21.77